sensor_id;sensor_type;location;lat;lon;timestamp;P1;durP1;ratioP1;P2;durP2;ratioP2
5209;SDS011;2624;48.048;11.706;2023-05-23T00:04:21;8.23;;;5.67;;
5209;SDS011;2624;48.048;11.706;2023-05-23T00:09:25;6.60;;;5.60;;
5209;SDS011;2624;48.048;11.706;2023-05-23T00:14:28;7.57;;;6.47;;
5209;SDS011;2624;48.048;11.706;2023-05-23T00:19:32;6.20;;;5.60;;
5209;SDS011;2624;48.048;11.706;2023-05-23T00:24:35;6.33;;;5.70;;
5209;SDS011;2624;48.048;11.706;2023-05-23T00:29:38;5.90;;;5.40;;
5209;SDS011;2624;48.048;11.706;2023-05-23T00:34:40;7.03;;;5.97;;
5209;SDS011;2624;48.048;11.706;2023-05-23T00:39:41;13.87;;;6.60;;
5209;SDS011;2624;48.048;11.706;2023-05-23T00:44:44;6.87;;;6.20;;
5209;SDS011;2624;48.048;11.706;2023-05-23T00:49:47;7.73;;;6.90;;
5209;SDS011;2624;48.048;11.706;2023-05-23T00:54:49;10.57;;;6.40;;
5209;SDS011;2624;48.048;11.706;2023-05-23T00:59:52;7.07;;;5.37;;
5209;SDS011;2624;48.048;11.706;2023-05-23T01:04:54;11.03;;;6.00;;
5209;SDS011;2624;48.048;11.706;2023-05-23T01:09:56;8.00;;;6.77;;
5209;SDS011;2624;48.048;11.706;2023-05-23T01:15:01;9.27;;;6.20;;
5209;SDS011;2624;48.048;11.706;2023-05-23T01:20:08;8.93;;;5.67;;
5209;SDS011;2624;48.048;11.706;2023-05-23T01:25:18;6.17;;;5.50;;
5209;SDS011;2624;48.048;11.706;2023-05-23T01:30:29;6.67;;;5.97;;
5209;SDS011;2624;48.048;11.706;2023-05-23T01:35:35;14.37;;;6.63;;
5209;SDS011;2624;48.048;11.706;2023-05-23T01:40:37;6.57;;;5.67;;
5209;SDS011;2624;48.048;11.706;2023-05-23T01:45:40;9.80;;;5.73;;
5209;SDS011;2624;48.048;11.706;2023-05-23T01:50:43;7.70;;;5.50;;
5209;SDS011;2624;48.048;11.706;2023-05-23T01:55:45;11.37;;;6.50;;
5209;SDS011;2624;48.048;11.706;2023-05-23T02:00:48;8.50;;;6.23;;
5209;SDS011;2624;48.048;11.706;2023-05-23T02:05:50;10.40;;;7.50;;
5209;SDS011;2624;48.048;11.706;2023-05-23T02:10:52;7.43;;;6.47;;
5209;SDS011;2624;48.048;11.706;2023-05-23T02:15:55;8.07;;;6.07;;
5209;SDS011;2624;48.048;11.706;2023-05-23T02:20:56;9.27;;;7.07;;
5209;SDS011;2624;48.048;11.706;2023-05-23T02:25:58;9.60;;;6.13;;
5209;SDS011;2624;48.048;11.706;2023-05-23T02:31:01;8.63;;;6.17;;
5209;SDS011;2624;48.048;11.706;2023-05-23T02:36:03;7.23;;;6.47;;
5209;SDS011;2624;48.048;11.706;2023-05-23T02:41:05;12.53;;;6.27;;
5209;SDS011;2624;48.048;11.706;2023-05-23T02:46:08;9.23;;;6.63;;
5209;SDS011;2624;48.048;11.706;2023-05-23T02:51:12;14.90;;;8.23;;
5209;SDS011;2624;48.048;11.706;2023-05-23T02:56:14;8.70;;;6.60;;
5209;SDS011;2624;48.048;11.706;2023-05-23T03:01:17;9.90;;;6.80;;
5209;SDS011;2624;48.048;11.706;2023-05-23T03:06:19;9.30;;;7.20;;
5209;SDS011;2624;48.048;11.706;2023-05-23T03:11:21;7.80;;;6.80;;
5209;SDS011;2624;48.048;11.706;2023-05-23T03:16:24;10.43;;;7.93;;
5209;SDS011;2624;48.048;11.706;2023-05-23T03:21:26;11.60;;;7.87;;
5209;SDS011;2624;48.048;11.706;2023-05-23T03:26:27;10.57;;;7.37;;
5209;SDS011;2624;48.048;11.706;2023-05-23T03:31:31;12.77;;;7.13;;
5209;SDS011;2624;48.048;11.706;2023-05-23T03:36:32;9.63;;;6.87;;
5209;SDS011;2624;48.048;11.706;2023-05-23T03:41:34;10.90;;;7.57;;
5209;SDS011;2624;48.048;11.706;2023-05-23T03:46:37;9.53;;;7.00;;
5209;SDS011;2624;48.048;11.706;2023-05-23T03:51:39;9.13;;;7.23;;
5209;SDS011;2624;48.048;11.706;2023-05-23T03:56:41;7.73;;;6.27;;
5209;SDS011;2624;48.048;11.706;2023-05-23T04:01:44;11.50;;;7.90;;
5209;SDS011;2624;48.048;11.706;2023-05-23T04:06:46;11.40;;;7.90;;
5209;SDS011;2624;48.048;11.706;2023-05-23T04:11:47;11.73;;;7.20;;
5209;SDS011;2624;48.048;11.706;2023-05-23T04:16:50;10.17;;;6.77;;
5209;SDS011;2624;48.048;11.706;2023-05-23T04:21:52;9.53;;;7.03;;
5209;SDS011;2624;48.048;11.706;2023-05-23T04:26:54;10.40;;;7.53;;
5209;SDS011;2624;48.048;11.706;2023-05-23T04:31:57;13.23;;;8.40;;
5209;SDS011;2624;48.048;11.706;2023-05-23T04:36:59;16.33;;;7.40;;
5209;SDS011;2624;48.048;11.706;2023-05-23T04:42:01;14.20;;;7.27;;
5209;SDS011;2624;48.048;11.706;2023-05-23T04:47:05;11.33;;;7.17;;
5209;SDS011;2624;48.048;11.706;2023-05-23T04:52:08;14.70;;;7.27;;
5209;SDS011;2624;48.048;11.706;2023-05-23T04:57:09;13.90;;;8.83;;
5209;SDS011;2624;48.048;11.706;2023-05-23T05:02:12;13.27;;;8.10;;
5209;SDS011;2624;48.048;11.706;2023-05-23T05:07:14;13.10;;;8.57;;
5209;SDS011;2624;48.048;11.706;2023-05-23T05:12:16;14.27;;;8.33;;
5209;SDS011;2624;48.048;11.706;2023-05-23T05:17:19;16.77;;;8.70;;
5209;SDS011;2624;48.048;11.706;2023-05-23T05:22:21;13.57;;;6.90;;
5209;SDS011;2624;48.048;11.706;2023-05-23T05:27:24;9.80;;;7.60;;
5209;SDS011;2624;48.048;11.706;2023-05-23T05:32:27;11.80;;;7.47;;
5209;SDS011;2624;48.048;11.706;2023-05-23T05:37:30;11.43;;;8.43;;
5209;SDS011;2624;48.048;11.706;2023-05-23T05:42:32;17.37;;;10.33;;
5209;SDS011;2624;48.048;11.706;2023-05-23T05:47:35;11.63;;;7.97;;
5209;SDS011;2624;48.048;11.706;2023-05-23T05:52:37;14.73;;;8.60;;
5209;SDS011;2624;48.048;11.706;2023-05-23T05:57:39;11.60;;;8.50;;
5209;SDS011;2624;48.048;11.706;2023-05-23T06:02:43;13.50;;;9.60;;
5209;SDS011;2624;48.048;11.706;2023-05-23T06:07:47;15.00;;;11.20;;
5209;SDS011;2624;48.048;11.706;2023-05-23T06:12:50;10.53;;;7.40;;
5209;SDS011;2624;48.048;11.706;2023-05-23T06:17:53;14.00;;;7.60;;
5209;SDS011;2624;48.048;11.706;2023-05-23T06:22:54;14.93;;;8.47;;
5209;SDS011;2624;48.048;11.706;2023-05-23T06:27:56;14.03;;;9.70;;
5209;SDS011;2624;48.048;11.706;2023-05-23T06:32:59;12.63;;;8.63;;
5209;SDS011;2624;48.048;11.706;2023-05-23T06:38:01;16.07;;;9.47;;
5209;SDS011;2624;48.048;11.706;2023-05-23T06:43:03;15.20;;;8.97;;
5209;SDS011;2624;48.048;11.706;2023-05-23T06:48:06;12.63;;;8.80;;
5209;SDS011;2624;48.048;11.706;2023-05-23T06:53:08;14.57;;;9.07;;
5209;SDS011;2624;48.048;11.706;2023-05-23T06:58:09;11.73;;;8.50;;
5209;SDS011;2624;48.048;11.706;2023-05-23T07:03:12;21.63;;;9.47;;
5209;SDS011;2624;48.048;11.706;2023-05-23T07:08:14;14.53;;;8.23;;
5209;SDS011;2624;48.048;11.706;2023-05-23T07:13:16;14.20;;;9.23;;
5209;SDS011;2624;48.048;11.706;2023-05-23T07:18:19;10.47;;;7.37;;
5209;SDS011;2624;48.048;11.706;2023-05-23T07:23:21;4.37;;;3.30;;
5209;SDS011;2624;48.048;11.706;2023-05-23T07:28:23;14.27;;;8.13;;
5209;SDS011;2624;48.048;11.706;2023-05-23T07:33:26;14.27;;;7.80;;
5209;SDS011;2624;48.048;11.706;2023-05-23T07:38:28;15.30;;;9.10;;
5209;SDS011;2624;48.048;11.706;2023-05-23T07:43:30;14.87;;;8.77;;
5209;SDS011;2624;48.048;11.706;2023-05-23T07:48:33;10.23;;;6.90;;
5209;SDS011;2624;48.048;11.706;2023-05-23T07:53:34;15.67;;;11.00;;
5209;SDS011;2624;48.048;11.706;2023-05-23T07:58:38;5.60;;;4.63;;
5209;SDS011;2624;48.048;11.706;2023-05-23T08:03:41;15.20;;;9.83;;
5209;SDS011;2624;48.048;11.706;2023-05-23T08:08:43;36.40;;;12.07;;
5209;SDS011;2624;48.048;11.706;2023-05-23T08:13:45;20.80;;;11.90;;
5209;SDS011;2624;48.048;11.706;2023-05-23T08:18:48;17.70;;;10.37;;
5209;SDS011;2624;48.048;11.706;2023-05-23T08:23:49;16.80;;;11.43;;
5209;SDS011;2624;48.048;11.706;2023-05-23T08:28:51;18.67;;;10.97;;
5209;SDS011;2624;48.048;11.706;2023-05-23T08:33:55;20.03;;;10.30;;
5209;SDS011;2624;48.048;11.706;2023-05-23T08:38:57;19.07;;;11.43;;
5209;SDS011;2624;48.048;11.706;2023-05-23T08:44:00;17.60;;;10.97;;
5209;SDS011;2624;48.048;11.706;2023-05-23T08:49:03;25.20;;;11.37;;
5209;SDS011;2624;48.048;11.706;2023-05-23T08:54:05;19.20;;;12.20;;
5209;SDS011;2624;48.048;11.706;2023-05-23T08:59:08;21.17;;;10.37;;
5209;SDS011;2624;48.048;11.706;2023-05-23T09:04:11;6.47;;;2.67;;
5209;SDS011;2624;48.048;11.706;2023-05-23T09:09:13;16.27;;;9.77;;
5209;SDS011;2624;48.048;11.706;2023-05-23T09:14:15;22.20;;;13.10;;
5209;SDS011;2624;48.048;11.706;2023-05-23T09:19:18;21.83;;;12.17;;
5209;SDS011;2624;48.048;11.706;2023-05-23T09:24:20;21.60;;;13.03;;
5209;SDS011;2624;48.048;11.706;2023-05-23T09:29:22;16.07;;;9.70;;
5209;SDS011;2624;48.048;11.706;2023-05-23T09:34:26;17.77;;;9.17;;
5209;SDS011;2624;48.048;11.706;2023-05-23T09:39:28;21.83;;;11.30;;
5209;SDS011;2624;48.048;11.706;2023-05-23T09:44:30;24.83;;;10.97;;
5209;SDS011;2624;48.048;11.706;2023-05-23T09:49:33;23.13;;;12.33;;
5209;SDS011;2624;48.048;11.706;2023-05-23T09:54:35;19.80;;;11.67;;
5209;SDS011;2624;48.048;11.706;2023-05-23T09:59:37;22.43;;;11.73;;
5209;SDS011;2624;48.048;11.706;2023-05-23T10:04:42;21.40;;;13.33;;
5209;SDS011;2624;48.048;11.706;2023-05-23T10:09:46;19.47;;;10.50;;
5209;SDS011;2624;48.048;11.706;2023-05-23T10:14:51;20.10;;;11.57;;
5209;SDS011;2624;48.048;11.706;2023-05-23T10:19:59;18.00;;;9.67;;
5209;SDS011;2624;48.048;11.706;2023-05-23T10:25:07;21.13;;;9.70;;
5209;SDS011;2624;48.048;11.706;2023-05-23T10:30:10;20.27;;;8.30;;
5209;SDS011;2624;48.048;11.706;2023-05-23T10:35:16;11.97;;;7.67;;
5209;SDS011;2624;48.048;11.706;2023-05-23T10:40:27;25.63;;;13.13;;
5209;SDS011;2624;48.048;11.706;2023-05-23T10:45:38;13.47;;;6.60;;
5209;SDS011;2624;48.048;11.706;2023-05-23T10:50:43;28.50;;;13.07;;
5209;SDS011;2624;48.048;11.706;2023-05-23T10:55:47;16.77;;;10.00;;
5209;SDS011;2624;48.048;11.706;2023-05-23T11:00:50;19.77;;;9.97;;
5209;SDS011;2624;48.048;11.706;2023-05-23T11:05:55;21.80;;;13.90;;
5209;SDS011;2624;48.048;11.706;2023-05-23T11:10:58;6.83;;;4.47;;
5209;SDS011;2624;48.048;11.706;2023-05-23T11:16:09;23.43;;;13.90;;
5209;SDS011;2624;48.048;11.706;2023-05-23T11:21:26;22.43;;;13.37;;
5209;SDS011;2624;48.048;11.706;2023-05-23T11:26:30;28.03;;;14.93;;
5209;SDS011;2624;48.048;11.706;2023-05-23T11:31:36;15.00;;;7.97;;
5209;SDS011;2624;48.048;11.706;2023-05-23T11:36:39;29.57;;;15.87;;
5209;SDS011;2624;48.048;11.706;2023-05-23T11:41:41;21.80;;;13.40;;
5209;SDS011;2624;48.048;11.706;2023-05-23T11:46:44;21.20;;;12.70;;
5209;SDS011;2624;48.048;11.706;2023-05-23T11:52:01;20.40;;;10.97;;
5209;SDS011;2624;48.048;11.706;2023-05-23T11:57:05;22.27;;;12.17;;
5209;SDS011;2624;48.048;11.706;2023-05-23T12:02:07;13.40;;;7.70;;
5209;SDS011;2624;48.048;11.706;2023-05-23T12:07:10;19.93;;;11.43;;
5209;SDS011;2624;48.048;11.706;2023-05-23T12:12:12;14.20;;;8.67;;
5209;SDS011;2624;48.048;11.706;2023-05-23T12:17:16;14.50;;;10.50;;
5209;SDS011;2624;48.048;11.706;2023-05-23T12:22:22;5.27;;;4.20;;
5209;SDS011;2624;48.048;11.706;2023-05-23T12:27:28;20.30;;;9.07;;
5209;SDS011;2624;48.048;11.706;2023-05-23T12:32:30;18.67;;;9.60;;
5209;SDS011;2624;48.048;11.706;2023-05-23T12:37:33;20.77;;;11.33;;
5209;SDS011;2624;48.048;11.706;2023-05-23T12:42:42;18.07;;;9.97;;
5209;SDS011;2624;48.048;11.706;2023-05-23T12:47:45;19.40;;;10.20;;
5209;SDS011;2624;48.048;11.706;2023-05-23T12:52:48;14.57;;;11.10;;
5209;SDS011;2624;48.048;11.706;2023-05-23T12:57:50;14.87;;;9.50;;
5209;SDS011;2624;48.048;11.706;2023-05-23T13:02:52;18.53;;;9.57;;
5209;SDS011;2624;48.048;11.706;2023-05-23T13:07:55;18.73;;;9.13;;
5209;SDS011;2624;48.048;11.706;2023-05-23T13:12:58;14.43;;;8.73;;
5209;SDS011;2624;48.048;11.706;2023-05-23T13:18:01;15.93;;;8.90;;
5209;SDS011;2624;48.048;11.706;2023-05-23T13:23:05;12.57;;;8.20;;
5209;SDS011;2624;48.048;11.706;2023-05-23T13:28:07;14.10;;;10.47;;
5209;SDS011;2624;48.048;11.706;2023-05-23T13:33:09;14.20;;;9.97;;
5209;SDS011;2624;48.048;11.706;2023-05-23T13:38:12;12.77;;;8.80;;
5209;SDS011;2624;48.048;11.706;2023-05-23T13:43:13;13.90;;;9.97;;
5209;SDS011;2624;48.048;11.706;2023-05-23T13:48:15;10.40;;;7.33;;
5209;SDS011;2624;48.048;11.706;2023-05-23T13:53:18;8.07;;;6.47;;
5209;SDS011;2624;48.048;11.706;2023-05-23T13:58:20;6.90;;;5.63;;
5209;SDS011;2624;48.048;11.706;2023-05-23T14:03:22;9.27;;;5.40;;
5209;SDS011;2624;48.048;11.706;2023-05-23T14:08:25;8.40;;;6.87;;
5209;SDS011;2624;48.048;11.706;2023-05-23T14:13:28;10.30;;;6.03;;
5209;SDS011;2624;48.048;11.706;2023-05-23T14:18:30;10.30;;;6.27;;
5209;SDS011;2624;48.048;11.706;2023-05-23T14:23:33;12.23;;;7.10;;
5209;SDS011;2624;48.048;11.706;2023-05-23T14:28:34;9.07;;;6.70;;
5209;SDS011;2624;48.048;11.706;2023-05-23T14:33:36;7.57;;;5.57;;
5209;SDS011;2624;48.048;11.706;2023-05-23T14:38:39;5.67;;;5.07;;
5209;SDS011;2624;48.048;11.706;2023-05-23T14:43:44;7.97;;;5.60;;
5209;SDS011;2624;48.048;11.706;2023-05-23T14:48:46;6.17;;;5.10;;
5209;SDS011;2624;48.048;11.706;2023-05-23T14:53:49;5.87;;;4.43;;
5209;SDS011;2624;48.048;11.706;2023-05-23T14:58:50;6.87;;;4.70;;
5209;SDS011;2624;48.048;11.706;2023-05-23T15:03:52;7.83;;;4.80;;
5209;SDS011;2624;48.048;11.706;2023-05-23T15:08:55;9.97;;;5.90;;
5209;SDS011;2624;48.048;11.706;2023-05-23T15:13:57;5.37;;;4.67;;
5209;SDS011;2624;48.048;11.706;2023-05-23T15:18:59;7.70;;;6.17;;
5209;SDS011;2624;48.048;11.706;2023-05-23T15:24:02;6.73;;;5.80;;
5209;SDS011;2624;48.048;11.706;2023-05-23T15:29:04;7.40;;;5.50;;
5209;SDS011;2624;48.048;11.706;2023-05-23T15:34:06;9.80;;;6.87;;
5209;SDS011;2624;48.048;11.706;2023-05-23T15:39:09;10.73;;;6.40;;
5209;SDS011;2624;48.048;11.706;2023-05-23T15:44:11;8.23;;;6.67;;
5209;SDS011;2624;48.048;11.706;2023-05-23T15:49:16;9.43;;;6.30;;
5209;SDS011;2624;48.048;11.706;2023-05-23T15:54:20;14.73;;;7.93;;
5209;SDS011;2624;48.048;11.706;2023-05-23T15:59:22;11.73;;;6.10;;
5209;SDS011;2624;48.048;11.706;2023-05-23T16:04:24;12.53;;;8.70;;
5209;SDS011;2624;48.048;11.706;2023-05-23T16:09:27;14.80;;;10.03;;
5209;SDS011;2624;48.048;11.706;2023-05-23T16:14:29;14.43;;;8.50;;
5209;SDS011;2624;48.048;11.706;2023-05-23T16:19:30;13.50;;;8.90;;
5209;SDS011;2624;48.048;11.706;2023-05-23T16:24:33;17.10;;;9.87;;
5209;SDS011;2624;48.048;11.706;2023-05-23T16:29:35;16.83;;;10.53;;
5209;SDS011;2624;48.048;11.706;2023-05-23T16:34:37;15.57;;;10.10;;
5209;SDS011;2624;48.048;11.706;2023-05-23T16:39:40;15.80;;;10.20;;
5209;SDS011;2624;48.048;11.706;2023-05-23T16:44:42;14.00;;;9.07;;
5209;SDS011;2624;48.048;11.706;2023-05-23T16:49:43;18.23;;;10.97;;
5209;SDS011;2624;48.048;11.706;2023-05-23T16:54:46;15.00;;;10.30;;
5209;SDS011;2624;48.048;11.706;2023-05-23T16:59:48;15.00;;;8.70;;
5209;SDS011;2624;48.048;11.706;2023-05-23T17:04:50;14.27;;;8.90;;
5209;SDS011;2624;48.048;11.706;2023-05-23T17:09:53;12.33;;;8.83;;
5209;SDS011;2624;48.048;11.706;2023-05-23T17:14:54;17.00;;;9.30;;
5209;SDS011;2624;48.048;11.706;2023-05-23T17:19:56;12.70;;;7.70;;
5209;SDS011;2624;48.048;11.706;2023-05-23T17:24:59;14.63;;;8.40;;
5209;SDS011;2624;48.048;11.706;2023-05-23T17:30:02;11.27;;;7.30;;
5209;SDS011;2624;48.048;11.706;2023-05-23T17:35:05;6.77;;;4.40;;
5209;SDS011;2624;48.048;11.706;2023-05-23T17:40:09;5.57;;;4.10;;
5209;SDS011;2624;48.048;11.706;2023-05-23T17:45:11;4.67;;;3.87;;
5209;SDS011;2624;48.048;11.706;2023-05-23T17:50:13;3.63;;;3.33;;
5209;SDS011;2624;48.048;11.706;2023-05-23T17:55:16;3.53;;;3.23;;
5209;SDS011;2624;48.048;11.706;2023-05-23T18:00:18;6.13;;;3.87;;
5209;SDS011;2624;48.048;11.706;2023-05-23T18:05:20;3.27;;;2.97;;
5209;SDS011;2624;48.048;11.706;2023-05-23T18:10:24;3.20;;;2.87;;
5209;SDS011;2624;48.048;11.706;2023-05-23T18:15:25;2.87;;;2.63;;
5209;SDS011;2624;48.048;11.706;2023-05-23T18:20:27;2.30;;;2.20;;
5209;SDS011;2624;48.048;11.706;2023-05-23T18:25:30;2.40;;;2.17;;
5209;SDS011;2624;48.048;11.706;2023-05-23T18:30:32;2.23;;;2.13;;
5209;SDS011;2624;48.048;11.706;2023-05-23T18:35:34;2.90;;;2.70;;
5209;SDS011;2624;48.048;11.706;2023-05-23T18:40:37;1.67;;;1.57;;
5209;SDS011;2624;48.048;11.706;2023-05-23T18:45:38;7.03;;;2.83;;
5209;SDS011;2624;48.048;11.706;2023-05-23T18:50:40;1.83;;;1.73;;
5209;SDS011;2624;48.048;11.706;2023-05-23T18:55:43;2.60;;;2.40;;
5209;SDS011;2624;48.048;11.706;2023-05-23T19:00:45;2.07;;;1.97;;
5209;SDS011;2624;48.048;11.706;2023-05-23T19:05:48;3.47;;;1.83;;
5209;SDS011;2624;48.048;11.706;2023-05-23T19:10:51;1.97;;;1.87;;
5209;SDS011;2624;48.048;11.706;2023-05-23T19:15:52;2.03;;;1.93;;
5209;SDS011;2624;48.048;11.706;2023-05-23T19:20:55;7.03;;;2.03;;
5209;SDS011;2624;48.048;11.706;2023-05-23T19:25:58;2.00;;;1.90;;
5209;SDS011;2624;48.048;11.706;2023-05-23T19:30:59;2.30;;;2.10;;
5209;SDS011;2624;48.048;11.706;2023-05-23T19:36:01;2.17;;;1.87;;
5209;SDS011;2624;48.048;11.706;2023-05-23T19:41:04;4.83;;;2.23;;
5209;SDS011;2624;48.048;11.706;2023-05-23T19:46:06;3.90;;;1.90;;
5209;SDS011;2624;48.048;11.706;2023-05-23T19:51:08;2.17;;;2.00;;
5209;SDS011;2624;48.048;11.706;2023-05-23T19:56:11;1.40;;;1.30;;
5209;SDS011;2624;48.048;11.706;2023-05-23T20:01:13;1.60;;;1.60;;
5209;SDS011;2624;48.048;11.706;2023-05-23T20:06:14;2.00;;;1.90;;
5209;SDS011;2624;48.048;11.706;2023-05-23T20:11:17;2.07;;;1.93;;
5209;SDS011;2624;48.048;11.706;2023-05-23T20:16:19;2.60;;;2.37;;
5209;SDS011;2624;48.048;11.706;2023-05-23T20:21:22;2.27;;;2.03;;
5209;SDS011;2624;48.048;11.706;2023-05-23T20:26:25;3.20;;;1.73;;
5209;SDS011;2624;48.048;11.706;2023-05-23T20:31:26;2.90;;;2.07;;
5209;SDS011;2624;48.048;11.706;2023-05-23T20:36:28;1.73;;;1.63;;
5209;SDS011;2624;48.048;11.706;2023-05-23T20:41:31;1.97;;;1.87;;
5209;SDS011;2624;48.048;11.706;2023-05-23T20:46:33;1.80;;;1.70;;
5209;SDS011;2624;48.048;11.706;2023-05-23T20:51:36;1.90;;;1.90;;
5209;SDS011;2624;48.048;11.706;2023-05-23T20:56:39;2.10;;;1.87;;
5209;SDS011;2624;48.048;11.706;2023-05-23T21:01:41;2.87;;;1.73;;
5209;SDS011;2624;48.048;11.706;2023-05-23T21:06:43;2.37;;;2.17;;
5209;SDS011;2624;48.048;11.706;2023-05-23T21:11:46;2.10;;;2.00;;
5209;SDS011;2624;48.048;11.706;2023-05-23T21:16:48;2.37;;;1.80;;
5209;SDS011;2624;48.048;11.706;2023-05-23T21:21:50;2.03;;;1.93;;
5209;SDS011;2624;48.048;11.706;2023-05-23T21:26:53;1.97;;;1.60;;
5209;SDS011;2624;48.048;11.706;2023-05-23T21:31:55;2.20;;;2.00;;
5209;SDS011;2624;48.048;11.706;2023-05-23T21:36:57;1.83;;;1.67;;
5209;SDS011;2624;48.048;11.706;2023-05-23T21:42:01;2.20;;;2.10;;
5209;SDS011;2624;48.048;11.706;2023-05-23T21:47:03;2.13;;;2.03;;
5209;SDS011;2624;48.048;11.706;2023-05-23T21:52:05;1.80;;;1.70;;
5209;SDS011;2624;48.048;11.706;2023-05-23T21:57:08;1.80;;;1.70;;
5209;SDS011;2624;48.048;11.706;2023-05-23T22:02:10;2.00;;;1.90;;
5209;SDS011;2624;48.048;11.706;2023-05-23T22:07:11;15.40;;;2.10;;
5209;SDS011;2624;48.048;11.706;2023-05-23T22:12:14;1.90;;;1.80;;
5209;SDS011;2624;48.048;11.706;2023-05-23T22:17:16;2.00;;;1.90;;
5209;SDS011;2624;48.048;11.706;2023-05-23T22:22:20;2.27;;;2.07;;
5209;SDS011;2624;48.048;11.706;2023-05-23T22:27:23;2.23;;;2.13;;
5209;SDS011;2624;48.048;11.706;2023-05-23T22:32:26;3.10;;;1.97;;
5209;SDS011;2624;48.048;11.706;2023-05-23T22:37:27;3.80;;;2.10;;
5209;SDS011;2624;48.048;11.706;2023-05-23T22:42:30;2.63;;;2.23;;
5209;SDS011;2624;48.048;11.706;2023-05-23T22:47:32;2.10;;;2.00;;
5209;SDS011;2624;48.048;11.706;2023-05-23T22:52:34;2.60;;;2.17;;
5209;SDS011;2624;48.048;11.706;2023-05-23T22:57:38;2.73;;;2.23;;
5209;SDS011;2624;48.048;11.706;2023-05-23T23:02:40;5.30;;;2.43;;
5209;SDS011;2624;48.048;11.706;2023-05-23T23:07:43;2.50;;;2.40;;
5209;SDS011;2624;48.048;11.706;2023-05-23T23:12:46;2.27;;;2.07;;
5209;SDS011;2624;48.048;11.706;2023-05-23T23:17:48;2.80;;;2.53;;
5209;SDS011;2624;48.048;11.706;2023-05-23T23:22:50;4.97;;;2.20;;
5209;SDS011;2624;48.048;11.706;2023-05-23T23:27:53;2.47;;;2.33;;
5209;SDS011;2624;48.048;11.706;2023-05-23T23:32:55;1.93;;;1.83;;
5209;SDS011;2624;48.048;11.706;2023-05-23T23:37:56;4.63;;;2.10;;
5209;SDS011;2624;48.048;11.706;2023-05-23T23:42:59;2.63;;;2.43;;
5209;SDS011;2624;48.048;11.706;2023-05-23T23:48:01;1.83;;;1.73;;
5209;SDS011;2624;48.048;11.706;2023-05-23T23:53:03;2.43;;;2.27;;
5209;SDS011;2624;48.048;11.706;2023-05-23T23:58:06;2.10;;;2.00;;
